createdAt,value
2018-07-12T00:04:00.081Z,13.70
2018-07-12T00:09:03.492Z,13.50
2018-07-12T00:14:06.794Z,13.40
2018-07-12T00:19:10.155Z,13.30
2018-07-12T00:24:13.605Z,13.20
2018-07-12T00:29:16.915Z,13.10
2018-07-12T00:34:20.326Z,13.00
2018-07-12T00:39:23.684Z,12.90
2018-07-12T00:44:27.071Z,12.80
2018-07-12T00:49:30.464Z,12.70
2018-07-12T00:54:34.039Z,12.80
2018-07-12T00:59:37.340Z,12.70
2018-07-12T01:04:40.756Z,12.60
2018-07-12T01:09:44.186Z,12.50
2018-07-12T01:19:50.920Z,12.30
2018-07-12T01:24:54.256Z,12.20
2018-07-12T01:29:57.620Z,12.20
2018-07-12T01:35:01.002Z,12.10
2018-07-12T01:40:04.326Z,12.10
2018-07-12T01:45:07.570Z,12.20
2018-07-12T01:50:10.972Z,12.20
2018-07-12T01:55:14.266Z,12.20
2018-07-12T02:00:17.600Z,12.00
2018-07-12T02:05:21.072Z,11.80
2018-07-12T02:10:24.368Z,11.70
2018-07-12T02:15:27.734Z,11.70
2018-07-12T02:20:31.015Z,11.70
2018-07-12T02:25:34.349Z,11.80
2018-07-12T02:30:37.598Z,11.80
2018-07-12T02:35:41.010Z,11.70
2018-07-12T02:40:44.421Z,11.60
2018-07-12T02:45:47.743Z,11.60
2018-07-12T02:50:51.137Z,11.60
2018-07-12T02:55:54.590Z,11.50
2018-07-12T03:00:57.756Z,11.50
2018-07-12T03:06:02.007Z,11.40
2018-07-12T03:11:05.343Z,11.40
2018-07-12T03:16:08.575Z,11.30
2018-07-12T03:21:12.009Z,11.20
2018-07-12T03:26:15.417Z,11.10
2018-07-12T03:31:18.642Z,11.20
2018-07-12T03:36:21.838Z,11.20
2018-07-12T03:41:25.168Z,11.10
2018-07-12T03:46:29.262Z,11.10
2018-07-12T03:56:36.498Z,11.10
2018-07-12T04:01:39.949Z,11.10
2018-07-12T04:06:43.207Z,11.10
2018-07-12T04:11:46.529Z,11.10
2018-07-12T04:16:49.763Z,11.10
2018-07-12T04:21:53.130Z,11.20
2018-07-12T04:26:56.555Z,11.40
2018-07-12T04:31:59.884Z,11.50
2018-07-12T04:37:03.296Z,11.60
2018-07-12T04:42:06.734Z,11.80
2018-07-12T04:47:10.284Z,11.90
2018-07-12T04:52:13.870Z,12.10
2018-07-12T04:57:17.247Z,12.40
2018-07-12T05:02:20.553Z,12.70
2018-07-12T05:07:23.968Z,12.90
2018-07-12T05:12:28.402Z,13.10
2018-07-12T05:17:31.871Z,13.60
2018-07-12T05:27:38.613Z,14.30
2018-07-12T05:32:42.818Z,14.60
2018-07-12T05:37:47.774Z,14.80
2018-07-12T05:42:52.620Z,14.80
2018-07-12T05:47:57.484Z,14.90
2018-07-12T05:53:02.434Z,14.60
2018-07-12T05:58:07.693Z,14.80
2018-07-12T06:03:12.898Z,14.70
2018-07-12T06:08:18.082Z,14.90
2018-07-12T06:13:22.956Z,15.30
2018-07-12T06:18:27.857Z,15.60
2018-07-12T06:23:32.627Z,15.80
2018-07-12T06:28:37.662Z,16.10
2018-07-12T06:33:42.170Z,16.40
2018-07-12T06:38:47.477Z,16.40
2018-07-12T06:43:52.259Z,16.90
2018-07-12T06:48:57.078Z,17.00
2018-07-12T06:54:01.982Z,17.00
2018-07-12T06:59:06.697Z,17.30
2018-07-12T07:04:11.460Z,17.70
2018-07-12T07:09:16.600Z,17.80
2018-07-12T07:14:21.530Z,17.80
2018-07-12T07:19:26.509Z,18.00
2018-07-12T07:24:31.320Z,18.30
2018-07-12T07:29:36.352Z,18.50
2018-07-12T07:34:41.315Z,18.40
2018-07-12T07:39:46.241Z,18.00
2018-07-12T07:44:51.010Z,18.00
2018-07-12T07:49:56.177Z,17.90
2018-07-12T07:55:01.502Z,18.00
2018-07-12T08:00:06.262Z,18.10
2018-07-12T08:05:11.302Z,18.50
2018-07-12T08:10:16.152Z,18.40
2018-07-12T08:20:25.580Z,18.50
2018-07-12T08:25:30.948Z,18.60
2018-07-12T08:30:36.210Z,19.00
2018-07-12T08:35:40.987Z,19.00
2018-07-12T08:40:45.848Z,19.30
2018-07-12T08:45:51.842Z,19.20
2018-07-12T08:50:56.367Z,19.30
2018-07-12T08:56:02.532Z,19.30
2018-07-12T09:01:07.143Z,19.40
2018-07-12T09:06:11.800Z,19.60
2018-07-12T09:11:16.589Z,19.70
2018-07-12T09:16:21.286Z,19.70
2018-07-12T09:21:26.003Z,20.00
2018-07-12T09:26:30.644Z,20.20
2018-07-12T09:31:35.281Z,20.30
2018-07-12T09:36:40.743Z,20.40
2018-07-12T09:41:45.958Z,20.40
2018-07-12T09:46:50.942Z,20.60
2018-07-12T09:51:55.763Z,20.70
2018-07-12T09:58:15.372Z,20.90
2018-07-12T10:03:21.629Z,21.30
2018-07-12T10:08:32.024Z,21.20
2018-07-12T10:13:42.093Z,21.30
2018-07-12T10:18:47.447Z,21.30
2018-07-12T10:23:52.222Z,21.40
2018-07-12T10:28:57.157Z,21.50
2018-07-12T10:39:08.260Z,22.30
2018-07-12T10:44:13.089Z,21.90
2018-07-12T10:49:18.003Z,22.40
2018-07-12T10:54:22.805Z,22.40
2018-07-12T10:59:27.561Z,22.80
2018-07-12T11:04:32.518Z,23.00
2018-07-12T11:09:37.404Z,23.10
2018-07-12T11:14:44.135Z,23.80
2018-07-12T11:19:48.735Z,23.60
2018-07-12T11:24:53.541Z,23.70
2018-07-12T11:30:00.244Z,23.90
2018-07-12T11:35:06.139Z,23.80
2018-07-12T11:40:10.884Z,23.80
2018-07-12T11:45:15.877Z,24.20
2018-07-12T11:50:20.315Z,24.30
2018-07-12T11:55:25.497Z,25.60
2018-07-12T12:00:30.369Z,26.60
2018-07-12T12:05:35.089Z,26.60
2018-07-12T12:10:39.642Z,26.90
2018-07-12T12:15:44.687Z,26.90
2018-07-12T12:20:49.426Z,27.50
2018-07-12T12:25:54.051Z,27.70
2018-07-12T12:30:58.909Z,28.20
2018-07-12T12:36:03.864Z,28.40
2018-07-12T12:41:08.657Z,29.20
2018-07-12T12:46:13.336Z,29.30
2018-07-12T12:56:22.558Z,30.60
2018-07-12T13:01:27.280Z,31.20
2018-07-12T13:06:31.992Z,30.30
2018-07-12T13:11:36.840Z,29.60
2018-07-12T13:16:41.491Z,30.40
2018-07-12T13:21:46.202Z,30.80
2018-07-12T13:26:51.013Z,30.30
2018-07-12T13:31:55.722Z,30.80
2018-07-12T13:42:04.673Z,30.60
2018-07-12T13:47:09.532Z,31.20
2018-07-12T13:52:15.032Z,31.90
2018-07-12T13:57:19.615Z,31.10
2018-07-12T14:02:24.577Z,31.80
2018-07-12T14:07:29.431Z,31.90
2018-07-12T14:12:34.646Z,32.20
2018-07-12T14:17:39.874Z,32.00
2018-07-12T14:22:44.734Z,32.10
2018-07-12T14:27:49.370Z,31.70
2018-07-12T14:32:55.044Z,31.70
2018-07-12T14:37:59.714Z,31.40
2018-07-12T14:43:04.644Z,32.70
2018-07-12T14:48:09.926Z,32.20
2018-07-12T14:53:14.607Z,32.40
2018-07-12T14:58:19.415Z,31.30
2018-07-12T15:03:24.464Z,31.50
2018-07-12T15:08:29.284Z,31.80
2018-07-12T15:13:34.100Z,32.00
2018-07-12T15:18:38.847Z,30.80
2018-07-12T15:23:43.814Z,31.60
2018-07-12T15:28:48.663Z,31.20
2018-07-12T15:33:53.306Z,31.50
2018-07-12T15:38:58.019Z,31.40
2018-07-12T15:44:03.199Z,32.40
2018-07-12T15:49:08.114Z,31.30
2018-07-12T15:54:13.147Z,31.20
2018-07-12T15:59:17.892Z,31.70
2018-07-12T16:04:22.598Z,31.60
2018-07-12T16:09:27.323Z,31.40
2018-07-12T16:14:32.488Z,30.90
2018-07-12T16:19:37.348Z,31.00
2018-07-12T16:24:42.032Z,31.30
2018-07-12T16:29:46.699Z,31.60
2018-07-12T16:34:51.659Z,32.60
2018-07-12T16:39:56.424Z,32.30
2018-07-12T16:45:01.254Z,31.40
2018-07-12T16:50:06.095Z,31.00
2018-07-12T16:55:11.016Z,29.90
2018-07-12T17:00:19.235Z,28.10
2018-07-12T17:05:24.494Z,27.40
2018-07-12T17:10:29.554Z,27.10
2018-07-12T17:15:35.115Z,26.90
2018-07-12T17:20:39.884Z,26.70
2018-07-12T17:25:44.782Z,26.90
2018-07-12T17:30:49.717Z,26.60
2018-07-12T17:35:54.639Z,26.10
2018-07-12T17:40:59.295Z,25.60
2018-07-12T17:46:04.211Z,25.50
2018-07-12T18:01:17.605Z,25.40
2018-07-12T18:06:22.562Z,25.40
2018-07-12T18:11:30.057Z,25.30
2018-07-12T18:16:35.115Z,25.20
2018-07-12T18:21:40.471Z,24.90
2018-07-12T18:26:45.717Z,24.80
2018-07-12T18:31:51.045Z,24.80
2018-07-12T18:36:56.205Z,24.70
2018-07-12T18:42:01.086Z,24.40
2018-07-12T18:47:06.453Z,24.20
2018-07-12T18:52:12.035Z,23.90
2018-07-12T18:57:17.779Z,23.70
2018-07-12T19:02:22.609Z,23.40
2018-07-12T19:07:27.478Z,23.20
2018-07-12T19:12:33.122Z,23.00
2018-07-12T19:17:37.960Z,22.70
2018-07-12T19:22:42.842Z,22.30
2018-07-12T19:27:47.727Z,22.10
2018-07-12T19:32:52.591Z,21.90
2018-07-12T19:43:02.160Z,21.20
2018-07-12T19:48:07.439Z,20.90
2018-07-12T19:53:12.308Z,20.70
2018-07-12T19:58:17.211Z,20.60
2018-07-12T20:08:26.783Z,20.40
2018-07-12T20:13:31.496Z,20.40
2018-07-12T20:18:36.051Z,20.30
2018-07-12T20:23:40.619Z,20.10
2018-07-12T20:28:45.528Z,19.90
2018-07-12T20:33:50.658Z,19.70
2018-07-12T20:38:55.445Z,19.50
2018-07-12T20:44:00.260Z,19.40
2018-07-12T20:54:11.156Z,19.10
2018-07-12T20:59:16.508Z,19.00
2018-07-12T21:09:27.214Z,18.80
2018-07-12T21:19:37.019Z,19.00
2018-07-12T21:24:42.175Z,19.00
2018-07-12T21:29:46.982Z,19.00
2018-07-12T21:34:51.717Z,18.90
2018-07-12T21:39:58.085Z,18.60
2018-07-12T21:45:02.703Z,18.40
2018-07-12T21:50:07.643Z,18.30
2018-07-12T21:55:12.641Z,18.40
2018-07-12T22:00:17.353Z,18.40
2018-07-12T22:05:22.066Z,18.20
2018-07-12T22:10:28.090Z,18.10
2018-07-12T22:15:33.366Z,18.00
2018-07-12T22:20:38.110Z,17.80
2018-07-12T22:25:42.960Z,17.70
2018-07-12T22:30:47.927Z,17.70
2018-07-12T22:35:54.126Z,17.60
2018-07-12T22:40:59.094Z,17.60
2018-07-12T22:46:03.848Z,17.60
2018-07-12T22:51:08.652Z,17.40
2018-07-12T22:56:13.310Z,17.10
2018-07-12T23:01:18.108Z,17.20
2018-07-12T23:06:22.951Z,17.20
2018-07-12T23:11:28.923Z,17.30
2018-07-12T23:16:33.799Z,17.30
2018-07-12T23:21:38.589Z,17.20
2018-07-12T23:26:43.349Z,17.00
2018-07-12T23:36:52.346Z,16.90
2018-07-12T23:41:57.114Z,16.90
2018-07-12T23:47:02.457Z,16.90
2018-07-12T23:52:07.379Z,16.90
2018-07-12T23:57:11.958Z,17.00
